Time;durP1;ratioP1;P1;durP2;ratioP2;P2;SDS_P1;SDS_P2;PMS_P1;PMS_P2;Temp;Humidity;BMP_temperature;BMP_pressure;BME280_temperature;BME280_humidity;BME280_pressure;Samples;Min_cycle;Max_cycle;Signal;HPM_P1;HPM_P2
2024/04/14 00:00:31;;;;;;;1999.90;999.90;;;17.90;78.20;;;;;;6425067;22;20215;-71
2024/04/14 00:02:57;;;;;;;1999.90;999.90;;;17.90;78.30;;;;;;6425317;22;20258;-71
2024/04/14 00:05:22;;;;;;;1999.90;999.90;;;17.90;78.30;;;;;;6425250;22;20669;-71
2024/04/14 00:28:49;;;;;;;1999.90;999.90;;;17.80;78.90;;;;;;6475089;21;20294;-70
2024/04/14 00:31:15;;;;;;;1999.90;999.90;;;17.80;79.00;;;;;;6431453;22;20253;-70
2024/04/14 00:33:40;;;;;;;1999.90;999.90;;;17.70;79.00;;;;;;6475178;22;20230;-70
2024/04/14 00:36:06;;;;;;;1999.90;999.90;;;17.70;79.20;;;;;;6473857;22;20379;-70
2024/04/14 00:38:32;;;;;;;1999.90;999.90;;;17.70;79.30;;;;;;6430552;22;20682;-69
2024/04/14 00:40:57;;;;;;;1999.90;999.90;;;17.70;79.40;;;;;;6475753;22;20214;-69
2024/04/14 00:43:24;;;;;;;1999.90;999.90;;;17.60;79.60;;;;;;6475248;22;20226;-70
2024/04/14 00:45:50;;;;;;;1999.90;999.90;;;17.60;79.70;;;;;;6431572;21;20791;-70
2024/04/14 00:48:19;;;;;;;1999.90;999.90;;;17.60;79.90;;;;;;6519562;22;20225;-70
2024/04/14 00:50:47;;;;;;;1999.90;999.90;;;17.50;80.10;;;;;;6526150;22;20273;-70
2024/04/14 00:53:13;;;;;;;1999.90;999.90;;;17.50;80.20;;;;;;6526586;22;20219;-69
2024/04/14 00:58:37;;;;;;;1999.90;999.90;;;17.50;80.30;;;;;;6475344;21;20737;-69
2024/04/14 01:01:03;;;;;;;1999.90;999.90;;;17.40;80.60;;;;;;6475228;22;20215;-69
2024/04/14 01:03:29;;;;;;;1999.90;999.90;;;17.40;80.60;;;;;;6475062;22;20223;-70
2024/04/14 01:05:56;;;;;;;1999.90;999.90;;;17.40;80.70;;;;;;6474674;22;20318;-70
2024/04/14 01:08:22;;;;;;;1999.90;999.90;;;17.40;80.80;;;;;;6474485;22;20282;-69
2024/04/14 01:10:48;;;;;;;1999.90;999.90;;;17.40;80.90;;;;;;6474687;22;20218;-69
2024/04/14 01:13:13;;;;;;;1999.90;999.90;;;17.40;81.10;;;;;;6475026;22;20261;-70
2024/04/14 01:15:39;;;;;;;1999.90;999.90;;;17.40;81.20;;;;;;6474765;22;20211;-70
2024/04/14 01:18:07;;;;;;;1999.90;999.90;;;17.30;81.30;;;;;;6429351;22;20242;-69
2024/04/14 01:20:34;;;;;;;1999.90;999.90;;;17.30;81.60;;;;;;6475341;22;20594;-70
2024/04/14 01:23:00;;;;;;;1999.90;999.90;;;17.40;81.60;;;;;;6475113;22;20721;-69
2024/04/14 01:25:25;;;;;;;1999.90;999.90;;;17.40;81.60;;;;;;6474961;22;20261;-69
2024/04/14 01:27:51;;;;;;;1999.90;999.90;;;17.40;81.70;;;;;;6472858;22;20229;-69
2024/04/14 01:30:17;;;;;;;1999.90;999.90;;;17.40;81.60;;;;;;6475077;22;20632;-69
2024/04/14 01:32:42;;;;;;;1999.90;999.90;;;17.40;81.60;;;;;;6475018;22;20253;-70
2024/04/14 01:35:08;;;;;;;1999.90;999.90;;;17.40;81.80;;;;;;6474642;22;20269;-69
2024/04/14 01:37:34;;;;;;;1999.90;999.90;;;17.40;82.00;;;;;;6473365;22;20237;-69
2024/04/14 01:40:00;;;;;;;1999.90;999.90;;;17.30;82.00;;;;;;6474457;22;20218;-69
2024/04/14 01:42:26;;;;;;;1999.90;999.90;;;17.30;82.10;;;;;;6475085;22;20245;-70
2024/04/14 01:44:51;;;;;;;1999.90;999.90;;;17.30;82.10;;;;;;6474834;22;20225;-69
2024/04/14 01:47:17;;;;;;;1999.90;999.90;;;17.30;82.10;;;;;;6473133;22;20306;-69
2024/04/14 01:49:43;;;;;;;1999.90;999.90;;;17.30;82.20;;;;;;6474988;22;20268;-70
2024/04/14 01:52:08;;;;;;;1999.90;999.90;;;17.30;82.40;;;;;;6475030;22;20582;-69
2024/04/14 01:54:34;;;;;;;1999.90;999.90;;;17.30;82.40;;;;;;6430694;22;20238;-70
2024/04/14 01:57:00;;;;;;;1999.90;999.90;;;17.30;82.60;;;;;;6500110;22;20241;-69
2024/04/14 01:59:25;;;;;;;1999.90;999.90;;;17.30;82.60;;;;;;6526259;22;20225;-70
2024/04/14 02:01:51;;;;;;;1999.90;999.90;;;17.20;82.60;;;;;;6527482;22;20229;-69
2024/04/14 02:04:16;;;;;;;1999.90;999.90;;;17.20;82.80;;;;;;6528771;22;20251;-69
2024/04/14 02:06:42;;;;;;;1999.90;999.90;;;17.20;82.90;;;;;;6527202;21;20237;-69
2024/04/14 02:09:08;;;;;;;1999.90;999.90;;;17.20;83.00;;;;;;6528672;22;20660;-69
2024/04/14 02:11:34;;;;;;;1999.90;999.90;;;17.20;83.10;;;;;;6528938;22;20220;-69
2024/04/14 02:14:00;;;;;;;1999.90;999.90;;;17.20;83.20;;;;;;6528963;22;20216;-69
2024/04/14 02:16:25;;;;;;;1999.90;999.90;;;17.20;83.30;;;;;;6526901;21;20735;-69
2024/04/14 02:18:51;;;;;;;1999.90;999.90;;;17.20;83.20;;;;;;6528432;22;20221;-69
2024/04/14 02:21:16;;;;;;;1999.90;999.90;;;17.10;83.20;;;;;;6528609;22;20270;-69
2024/04/14 02:23:43;;;;;;;1999.90;999.90;;;17.10;83.30;;;;;;6528630;22;20260;-69
2024/04/14 02:26:09;;;;;;;1999.90;999.90;;;17.10;83.50;;;;;;6526762;21;20229;-69
2024/04/14 02:28:34;;;;;;;1999.90;999.90;;;17.00;83.70;;;;;;6528914;22;20722;-70
2024/04/14 02:31:00;;;;;;;1999.90;999.90;;;17.00;83.60;;;;;;6528478;22;20599;-69
2024/04/14 02:33:26;;;;;;;1999.90;999.90;;;17.00;83.60;;;;;;6528558;22;20248;-69
2024/04/14 02:36:00;;;;;;;1999.90;999.90;;;17.00;83.70;;;;;;6520695;21;20323;-70
2024/04/14 02:38:26;;;;;;;1999.90;999.90;;;16.90;83.90;;;;;;6477038;22;20278;-69
2024/04/14 02:41:00;;;;;;;1999.90;999.90;;;16.90;83.80;;;;;;6477079;22;20223;-70
2024/04/14 02:43:26;;;;;;;1999.90;999.90;;;16.80;83.90;;;;;;6476540;22;20233;-69
2024/04/14 02:51:12;;;;;;;1999.90;999.90;;;16.80;83.70;;;;;;6479610;21;20298;-69
2024/04/14 02:53:37;;;;;;;1999.90;999.90;;;16.80;83.70;;;;;;6476851;22;20776;-69
2024/04/14 02:56:03;;;;;;;1999.90;999.90;;;16.70;83.90;;;;;;6475083;22;20238;-70
2024/04/14 02:58:29;;;;;;;1999.90;999.90;;;16.70;84.20;;;;;;6477147;22;20221;-69
2024/04/14 03:01:00;;;;;;;1999.90;999.90;;;16.70;84.30;;;;;;6477223;22;20568;-70
2024/04/14 03:03:25;;;;;;;1999.90;999.90;;;16.70;84.40;;;;;;6476901;22;20628;-69
2024/04/14 03:16:13;;;;;;;1999.90;999.90;;;16.60;84.80;;;;;;6485153;21;21126;-69
2024/04/14 03:18:38;;;;;;;1999.90;999.90;;;16.50;84.80;;;;;;6475311;22;20224;-69
2024/04/14 03:21:04;;;;;;;1999.90;999.90;;;16.50;84.90;;;;;;6476137;22;20277;-69
2024/04/14 03:23:31;;;;;;;1999.90;999.90;;;16.50;85.00;;;;;;6475922;22;20595;-68
2024/04/14 03:25:56;;;;;;;1999.90;999.90;;;16.50;85.10;;;;;;6475537;22;20239;-68
2024/04/14 03:28:23;;;;;;;1999.90;999.90;;;16.50;85.20;;;;;;6475674;22;20724;-69
2024/04/14 03:30:49;;;;;;;1999.90;999.90;;;16.60;85.30;;;;;;6476299;22;20224;-69
2024/04/14 03:33:15;;;;;;;1999.90;999.90;;;16.60;85.30;;;;;;6475939;22;20263;-69
2024/04/14 03:35:41;;;;;;;1999.90;999.90;;;16.60;85.30;;;;;;6431549;22;20281;-70
2024/04/14 03:38:07;;;;;;;1999.90;999.90;;;16.60;85.30;;;;;;6472924;22;20225;-70
2024/04/14 03:40:32;;;;;;;1999.90;999.90;;;16.50;85.20;;;;;;6474891;22;20350;-70
2024/04/14 03:42:58;;;;;;;1999.90;999.90;;;16.50;85.20;;;;;;6475646;22;20216;-70
2024/04/14 03:45:24;;;;;;;1999.90;999.90;;;16.50;85.20;;;;;;6476099;22;20210;-70
2024/04/14 03:55:56;;;;;;;1999.90;999.90;;;16.40;86.00;;;;;;6475109;21;20301;-71
2024/04/14 03:58:23;;;;;;;1999.90;999.90;;;16.30;86.20;;;;;;6473946;22;20222;-71
2024/04/14 04:00:49;;;;;;;1999.90;999.90;;;16.30;85.90;;;;;;6475717;22;20209;-71
2024/04/14 04:03:14;;;;;;;1999.90;999.90;;;16.30;85.80;;;;;;6476055;22;20258;-71
2024/04/14 04:08:14;;;;;;;1999.90;999.90;;;16.30;85.90;;;;;;6424154;22;20274;-69
2024/04/14 04:10:40;;;;;;;1999.90;999.90;;;16.20;86.20;;;;;;6424988;22;20269;-69
2024/04/14 04:13:05;;;;;;;1999.90;999.90;;;16.20;86.40;;;;;;6424668;22;20221;-71
2024/04/14 04:15:31;;;;;;;1999.90;999.90;;;16.10;86.60;;;;;;6424800;22;20267;-69
2024/04/14 04:17:57;;;;;;;1999.90;999.90;;;16.10;86.90;;;;;;6423398;22;20580;-71
2024/04/14 04:20:22;;;;;;;1999.90;999.90;;;16.10;87.30;;;;;;6425361;22;20657;-69
2024/04/14 04:22:48;;;;;;;1999.90;999.90;;;16.10;87.60;;;;;;6425195;22;20685;-69
2024/04/14 04:25:14;;;;;;;1999.90;999.90;;;16.10;87.60;;;;;;6424466;22;20269;-70
2024/04/14 04:27:39;;;;;;;1999.90;999.90;;;16.20;87.60;;;;;;6423438;22;20229;-70
2024/04/14 04:30:05;;;;;;;1999.90;999.90;;;16.20;87.50;;;;;;6424398;22;20272;-70
2024/04/14 04:32:31;;;;;;;1999.90;999.90;;;16.30;87.40;;;;;;6424974;22;20218;-70
2024/04/14 04:34:57;;;;;;;1999.90;999.90;;;16.30;87.30;;;;;;6424587;22;20222;-70
2024/04/14 04:37:22;;;;;;;1999.90;999.90;;;16.30;87.20;;;;;;6423044;22;20326;-70
2024/04/14 04:39:48;;;;;;;1999.90;999.90;;;16.30;87.10;;;;;;6424996;22;20257;-70
2024/04/14 04:42:14;;;;;;;1999.90;999.90;;;16.30;87.10;;;;;;6424954;22;20587;-70
2024/04/14 04:44:39;;;;;;;1999.90;999.90;;;16.30;87.00;;;;;;6424421;22;20270;-72
2024/04/14 04:47:05;;;;;;;1999.90;999.90;;;16.40;86.90;;;;;;6423615;22;20269;-70
2024/04/14 04:49:30;;;;;;;1999.90;999.90;;;16.30;86.70;;;;;;6424708;22;20216;-70
2024/04/14 04:51:56;;;;;;;1999.90;999.90;;;16.30;86.50;;;;;;6424979;22;20260;-70
2024/04/14 04:54:22;;;;;;;1999.90;999.90;;;16.30;86.40;;;;;;6424450;22;20221;-70
2024/04/14 04:56:47;;;;;;;1999.90;999.90;;;16.30;86.30;;;;;;6422864;22;20239;-70
2024/04/14 04:59:13;;;;;;;1999.90;999.90;;;16.20;86.30;;;;;;6424745;22;20222;-70
2024/04/14 05:01:39;;;;;;;1999.90;999.90;;;16.10;86.30;;;;;;6424748;22;20221;-70
2024/04/14 05:04:04;;;;;;;1999.90;999.90;;;16.00;86.30;;;;;;6424735;22;20243;-70
2024/04/14 05:06:30;;;;;;;1999.90;999.90;;;16.00;86.30;;;;;;6438964;22;20701;-70
2024/04/14 05:08:56;;;;;;;1999.90;999.90;;;16.00;86.10;;;;;;6474955;22;20225;-70
2024/04/14 05:11:21;;;;;;;1999.90;999.90;;;16.00;86.10;;;;;;6430819;22;20227;-70
2024/04/14 05:13:47;;;;;;;1999.90;999.90;;;16.00;86.00;;;;;;6475342;22;20706;-70
2024/04/14 05:16:12;;;;;;;1999.90;999.90;;;16.00;86.00;;;;;;6473180;22;20239;-70
2024/04/14 05:18:38;;;;;;;1999.90;999.90;;;16.00;85.90;;;;;;6474929;22;20264;-70
2024/04/14 05:21:04;;;;;;;1999.90;999.90;;;16.10;85.80;;;;;;6431033;22;20259;-70
2024/04/14 05:23:30;;;;;;;1999.90;999.90;;;16.10;85.60;;;;;;6475183;22;20734;-70
2024/04/14 05:25:56;;;;;;;1999.90;999.90;;;16.10;85.60;;;;;;6474957;22;20235;-70
2024/04/14 05:28:21;;;;;;;1999.90;999.90;;;16.20;85.60;;;;;;6474700;22;20920;-70
2024/04/14 05:30:47;;;;;;;1999.90;999.90;;;16.20;85.30;;;;;;6475042;22;20336;-70
2024/04/14 05:33:12;;;;;;;1999.90;999.90;;;16.30;85.20;;;;;;6475012;22;20260;-69
2024/04/14 05:35:38;;;;;;;1999.90;999.90;;;16.30;85.10;;;;;;6474799;22;20264;-70
2024/04/14 05:38:04;;;;;;;1999.90;999.90;;;16.40;85.00;;;;;;6475667;22;20221;-70
2024/04/14 05:40:29;;;;;;;1999.90;999.90;;;16.50;84.90;;;;;;6477135;22;20266;-70
2024/04/14 05:42:55;;;;;;;1999.90;999.90;;;16.50;84.70;;;;;;6476865;22;20366;-70
2024/04/14 05:45:24;;;;;;;1999.90;999.90;;;16.60;84.60;;;;;;6476370;22;20217;-70
2024/04/14 05:47:50;;;;;;;1999.90;999.90;;;16.70;84.60;;;;;;6498335;21;20300;-70
2024/04/14 05:50:16;;;;;;;1999.90;999.90;;;16.80;84.50;;;;;;6476538;22;20669;-70
2024/04/14 05:52:41;;;;;;;1999.90;999.90;;;16.80;84.90;;;;;;6476538;22;20677;-70
2024/04/14 05:55:07;;;;;;;1999.90;999.90;;;16.80;84.10;;;;;;6476411;22;20283;-70
2024/04/14 05:57:33;;;;;;;1999.90;999.90;;;16.80;84.20;;;;;;6475007;22;20233;-70
2024/04/14 05:59:59;;;;;;;1999.90;999.90;;;16.90;84.20;;;;;;6476582;22;20585;-70
2024/04/14 06:02:25;;;;;;;1999.90;999.90;;;17.00;84.10;;;;;;6476168;22;20217;-70
2024/04/14 06:04:50;;;;;;;1999.90;999.90;;;17.00;83.90;;;;;;6477108;22;20323;-70
2024/04/14 06:07:22;;;;;;;1999.90;999.90;;;17.10;83.90;;;;;;6474092;21;20714;-70
2024/04/14 06:09:48;;;;;;;1999.90;999.90;;;17.20;83.80;;;;;;6433366;22;20225;-70
2024/04/14 06:12:13;;;;;;;1999.90;999.90;;;17.30;83.60;;;;;;6477257;22;20269;-70
2024/04/14 06:14:39;;;;;;;1999.90;999.90;;;17.40;83.50;;;;;;6476768;22;20221;-70
2024/04/14 06:17:05;;;;;;;1999.90;999.90;;;17.60;83.30;;;;;;6474229;22;20241;-70
2024/04/14 06:19:30;;;;;;;1999.90;999.90;;;17.70;83.20;;;;;;6476201;22;20335;-70
2024/04/14 06:21:56;;;;;;;1999.90;999.90;;;17.80;82.90;;;;;;6476091;22;20530;-70
2024/04/14 06:24:22;;;;;;;1999.90;999.90;;;17.90;82.60;;;;;;6476563;22;20226;-70
2024/04/14 06:26:47;;;;;;;1999.90;999.90;;;18.10;83.30;;;;;;6475074;22;20345;-71
2024/04/14 06:29:14;;;;;;;1999.90;999.90;;;18.20;82.10;;;;;;6476286;22;20307;-70
2024/04/14 06:31:40;;;;;;;1999.90;999.90;;;18.30;81.90;;;;;;6475949;22;20214;-70
2024/04/14 06:34:05;;;;;;;1999.90;999.90;;;18.50;81.70;;;;;;6475844;22;20290;-70
2024/04/14 06:36:31;;;;;;;1999.90;999.90;;;18.60;81.20;;;;;;6474254;22;20226;-70
2024/04/14 06:38:57;;;;;;;1999.90;999.90;;;18.80;80.70;;;;;;6476259;22;20278;-70
2024/04/14 06:41:24;;;;;;;1999.90;999.90;;;18.90;80.40;;;;;;6476462;22;20540;-70
2024/04/14 06:43:49;;;;;;;1999.90;999.90;;;19.10;80.00;;;;;;6476170;22;20253;-71
2024/04/14 06:46:15;;;;;;;1999.90;999.90;;;19.20;79.30;;;;;;6474337;22;20298;-70
2024/04/14 06:48:41;;;;;;;1999.90;999.90;;;19.30;78.80;;;;;;6475465;22;20218;-70
2024/04/14 06:51:06;;;;;;;1999.90;999.90;;;19.40;78.30;;;;;;6476781;22;20705;-70
2024/04/14 06:53:33;;;;;;;1999.90;999.90;;;19.50;77.20;;;;;;6431855;22;20700;-70
2024/04/14 06:56:00;;;;;;;1999.90;999.90;;;19.50;76.40;;;;;;6475329;22;20230;-71
2024/04/14 06:58:26;;;;;;;1999.90;999.90;;;19.60;76.50;;;;;;6475894;22;20225;-71
2024/04/14 07:00:51;;;;;;;1999.90;999.90;;;19.80;75.70;;;;;;6476584;22;20214;-71
2024/04/14 07:03:18;;;;;;;1999.90;999.90;;;19.80;74.60;;;;;;6476108;22;20261;-71
2024/04/14 07:05:44;;;;;;;1999.90;999.90;;;19.80;74.10;;;;;;6475942;22;20218;-71
2024/04/14 07:08:09;;;;;;;1999.90;999.90;;;19.90;74.30;;;;;;6524319;22;20272;-71
2024/04/14 07:10:35;;;;;;;1999.90;999.90;;;20.10;74.40;;;;;;6528004;22;20213;-71
2024/04/14 07:13:01;;;;;;;1999.90;999.90;;;20.30;73.60;;;;;;6527601;22;20221;-71
2024/04/14 07:15:27;;;;;;;1999.90;999.90;;;20.40;73.20;;;;;;6526964;22;20251;-71
2024/04/14 07:17:59;;;;;;;1999.90;999.90;;;20.60;72.50;;;;;;6477882;21;20270;-71
2024/04/14 07:20:24;;;;;;;1999.90;999.90;;;20.80;71.40;;;;;;6476467;22;20741;-71
2024/04/14 07:22:50;;;;;;;1999.90;999.90;;;20.80;70.60;;;;;;6476006;22;20221;-71
2024/04/14 07:25:15;;;;;;;1999.90;999.90;;;20.80;69.60;;;;;;6476230;22;20677;-71
2024/04/14 07:27:42;;;;;;;1999.90;999.90;;;20.70;68.80;;;;;;6474725;22;20231;-71
2024/04/14 07:30:08;;;;;;;1999.90;999.90;;;20.80;68.70;;;;;;6475950;22;20234;-71
2024/04/14 07:32:34;;;;;;;1999.90;999.90;;;20.90;67.40;;;;;;6475944;22;20324;-71
2024/04/14 07:34:59;;;;;;;1999.90;999.90;;;20.90;66.90;;;;;;6476207;22;20271;-71
2024/04/14 07:37:58;;;;;;;1999.90;999.90;;;21.10;66.60;;;;;;6498878;21;20314;-71
2024/04/14 07:40:23;;;;;;;1999.90;999.90;;;21.00;66.30;;;;;;6447083;22;20220;-71
2024/04/14 07:42:49;;;;;;;1999.90;999.90;;;21.10;66.30;;;;;;6475974;22;20576;-71
2024/04/14 07:45:16;;;;;;;1999.90;999.90;;;21.20;66.10;;;;;;6475900;22;20257;-71
2024/04/14 07:47:41;;;;;;;1999.90;999.90;;;21.50;66.20;;;;;;6474512;22;20227;-71
2024/04/14 07:50:07;;;;;;;1999.90;999.90;;;21.70;65.10;;;;;;6475690;22;20211;-71
2024/04/14 07:52:33;;;;;;;1999.90;999.90;;;22.00;64.70;;;;;;6476246;22;20214;-71
2024/04/14 07:54:58;;;;;;;1999.90;999.90;;;22.40;64.10;;;;;;6475967;22;20222;-71
2024/04/14 08:00:06;;;;;;;1999.90;999.90;;;22.90;63.40;;;;;;6475002;21;20817;-72
2024/04/14 08:02:32;;;;;;;1999.90;999.90;;;23.10;62.40;;;;;;6431597;22;20259;-72
2024/04/14 08:04:57;;;;;;;1999.90;999.90;;;23.30;61.80;;;;;;6475466;22;20214;-71
2024/04/14 08:07:24;;;;;;;1999.90;999.90;;;23.50;60.40;;;;;;6474081;22;20238;-71
2024/04/14 08:09:49;;;;;;;1999.90;999.90;;;23.50;60.00;;;;;;6475551;22;20218;-72
2024/04/14 08:12:15;;;;;;;1999.90;999.90;;;23.70;60.20;;;;;;6475480;22;20593;-72
2024/04/14 08:14:41;;;;;;;1999.90;999.90;;;23.90;59.60;;;;;;6475800;22;20264;-72
2024/04/14 08:19:52;;;;;;;1999.90;999.90;;;24.40;58.80;;;;;;6474799;21;20653;-72
2024/04/14 08:22:47;;;;;;;1999.90;999.90;;;24.60;57.90;;;;;;6475311;22;20222;-72
2024/04/14 08:25:24;;;;;;;1999.90;999.90;;;24.60;56.90;;;;;;6475071;22;20301;-72
2024/04/14 08:27:50;;;;;;;1999.90;999.90;;;24.60;57.00;;;;;;6474421;22;20256;-72
2024/04/14 08:30:17;;;;;;;1999.90;999.90;;;24.70;56.70;;;;;;6474965;22;20258;-72
2024/04/14 08:32:43;;;;;;;1999.90;999.90;;;24.90;56.40;;;;;;6475426;22;20593;-72
2024/04/14 08:35:08;;;;;;;1999.90;999.90;;;24.90;55.90;;;;;;6474875;22;20218;-72
2024/04/14 08:37:34;;;;;;;1999.90;999.90;;;25.00;55.50;;;;;;6473901;22;20725;-72
2024/04/14 08:40:00;;;;;;;1999.90;999.90;;;25.20;55.20;;;;;;6475640;22;20249;-72
2024/04/14 08:42:28;;;;;;;1999.90;999.90;;;25.50;55.00;;;;;;6475489;22;20621;-72
2024/04/14 08:44:54;;;;;;;1999.90;999.90;;;25.60;54.30;;;;;;6475564;22;20218;-72
2024/04/14 08:47:21;;;;;;;1999.90;999.90;;;25.60;53.90;;;;;;6474284;22;20275;-72
2024/04/14 08:49:48;;;;;;;1999.90;999.90;;;25.70;53.70;;;;;;6475149;22;20281;-73
2024/04/14 08:52:15;;;;;;;1999.90;999.90;;;25.90;53.50;;;;;;6475354;22;20222;-72
2024/04/14 08:54:41;;;;;;;1999.90;999.90;;;26.10;52.80;;;;;;6430885;22;20230;-72
2024/04/14 08:57:10;;;;;;;1999.90;999.90;;;26.10;52.50;;;;;;6429899;22;20341;-72
2024/04/14 08:59:40;;;;;;;1999.90;999.90;;;26.10;52.40;;;;;;6475026;22;20248;-72
2024/04/14 09:02:10;;;;;;;1999.90;999.90;;;26.20;51.90;;;;;;6475737;22;20269;-72
2024/04/14 09:04:36;;;;;;;1999.90;999.90;;;26.40;52.10;;;;;;6475128;22;20214;-72
2024/04/14 09:07:02;;;;;;;1999.90;999.90;;;26.40;51.50;;;;;;6474083;22;20285;-72
2024/04/14 09:09:28;;;;;;;1999.90;999.90;;;26.40;51.90;;;;;;6475341;22;20265;-72
2024/04/14 09:11:56;;;;;;;1999.90;999.90;;;26.30;51.70;;;;;;6475918;22;20217;-72
2024/04/14 09:14:24;;;;;;;1999.90;999.90;;;26.30;51.20;;;;;;6478110;22;20269;-72
2024/04/14 09:16:51;;;;;;;1999.90;999.90;;;26.40;50.70;;;;;;6475887;22;20234;-72
2024/04/14 09:19:21;;;;;;;1999.90;999.90;;;26.50;51.50;;;;;;6477710;22;20214;-72
2024/04/14 09:21:47;;;;;;;1999.90;999.90;;;26.70;51.00;;;;;;6477711;22;20226;-72
2024/04/14 09:24:12;;;;;;;1999.90;999.90;;;26.90;51.00;;;;;;6477456;22;20367;-72
2024/04/14 09:26:38;;;;;;;1999.90;999.90;;;26.90;51.00;;;;;;6476226;22;20234;-72
2024/04/14 09:29:08;;;;;;;1999.90;999.90;;;26.90;50.00;;;;;;6475899;22;20252;-71
2024/04/14 09:31:34;;;;;;;1999.90;999.90;;;26.50;50.30;;;;;;6477423;22;20218;-71
2024/04/14 09:34:03;;;;;;;1999.90;999.90;;;26.40;51.10;;;;;;6476992;22;20265;-71
2024/04/14 09:39:37;;;;;;;1999.90;999.90;;;26.60;51.50;;;;;;6450924;21;20303;-71
2024/04/14 09:42:03;;;;;;;1999.90;999.90;;;26.80;51.00;;;;;;6426805;22;20216;-71
2024/04/14 09:44:31;;;;;;;1999.90;999.90;;;27.20;50.40;;;;;;6426415;22;20273;-71
2024/04/14 09:46:59;;;;;;;1999.90;999.90;;;27.30;50.40;;;;;;6425296;22;20271;-71
2024/04/14 09:49:29;;;;;;;1999.90;999.90;;;27.40;49.90;;;;;;6426103;22;20228;-71
2024/04/14 09:51:56;;;;;;;1999.90;999.90;;;27.60;49.00;;;;;;6425348;22;20520;-71
2024/04/14 09:54:23;;;;;;;1999.90;999.90;;;27.70;49.00;;;;;;6425704;22;20219;-72
2024/04/14 09:56:49;;;;;;;1999.90;999.90;;;27.80;49.10;;;;;;6424419;22;20547;-72
2024/04/14 09:59:14;;;;;;;1999.90;999.90;;;27.90;48.60;;;;;;6425738;22;20329;-71
2024/04/14 10:01:44;;;;;;;1999.90;999.90;;;27.50;48.00;;;;;;6425795;22;20223;-71
2024/04/14 10:04:11;;;;;;;1999.90;999.90;;;27.40;49.00;;;;;;6378692;22;20258;-71
2024/04/14 10:06:39;;;;;;;1999.90;999.90;;;27.50;49.20;;;;;;6423716;22;20702;-71
2024/04/14 10:09:06;;;;;;;1999.90;999.90;;;27.60;48.60;;;;;;6425995;22;20722;-71
2024/04/14 10:11:32;;;;;;;1999.90;999.90;;;27.50;48.10;;;;;;6380855;22;20257;-71
2024/04/14 10:13:58;;;;;;;1999.90;999.90;;;27.40;49.20;;;;;;6426225;22;20220;-71
2024/04/14 10:16:26;;;;;;;1999.90;999.90;;;27.50;49.40;;;;;;6424000;22;20227;-71
2024/04/14 10:18:52;;;;;;;1999.90;999.90;;;27.60;49.80;;;;;;6425305;22;20215;-71
2024/04/14 10:21:21;;;;;;;1999.90;999.90;;;27.90;49.30;;;;;;6381535;22;20761;-71
2024/04/14 10:23:49;;;;;;;1999.90;999.90;;;28.20;48.90;;;;;;6381728;22;20351;-73
2024/04/14 10:26:18;;;;;;;1999.90;999.90;;;28.50;48.30;;;;;;6379324;22;20247;-71
2024/04/14 10:28:54;;;;;;;1999.90;999.90;;;28.80;47.60;;;;;;6424980;22;20265;-71
2024/04/14 10:31:34;;;;;;;1999.90;999.90;;;29.00;47.30;;;;;;6426046;22;20223;-71
2024/04/14 10:34:19;;;;;;;1999.90;999.90;;;29.00;46.90;;;;;;6425718;22;20219;-72
2024/04/14 10:36:58;;;;;;;1999.90;999.90;;;28.90;47.00;;;;;;6424074;22;20242;-72
2024/04/14 10:39:24;;;;;;;1999.90;999.90;;;29.10;47.00;;;;;;6425609;22;20227;-73
2024/04/14 10:41:50;;;;;;;1999.90;999.90;;;29.40;46.10;;;;;;6425660;22;20223;-73
2024/04/14 10:44:17;;;;;;;1999.90;999.90;;;29.40;45.20;;;;;;6425258;22;20682;-72
2024/04/14 10:46:43;;;;;;;1999.90;999.90;;;29.20;45.50;;;;;;6424058;22;20243;-72
2024/04/14 10:49:09;;;;;;;1999.90;999.90;;;29.30;45.90;;;;;;6425656;22;20215;-73
2024/04/14 10:51:35;;;;;;;1999.90;999.90;;;29.30;45.30;;;;;;6425434;22;20262;-73
2024/04/14 10:54:01;;;;;;;1999.90;999.90;;;29.40;45.10;;;;;;6425525;22;20219;-72
2024/04/14 10:56:28;;;;;;;1999.90;999.90;;;29.60;45.30;;;;;;6424032;22;20687;-73
2024/04/14 10:58:53;;;;;;;1999.90;999.90;;;29.90;44.60;;;;;;6425139;22;20292;-73
2024/04/14 11:01:19;;;;;;;1999.90;999.90;;;30.00;44.60;;;;;;6425255;22;20599;-73
2024/04/14 11:03:47;;;;;;;1999.90;999.90;;;30.10;44.20;;;;;;6425309;22;20709;-72
2024/04/14 11:06:14;;;;;;;1999.90;999.90;;;30.30;44.00;;;;;;6423217;22;20243;-72
2024/04/14 11:08:41;;;;;;;1999.90;999.90;;;30.30;43.40;;;;;;6424644;22;20254;-73
2024/04/14 11:11:07;;;;;;;1999.90;999.90;;;30.40;43.60;;;;;;6425906;22;20230;-72
2024/04/14 11:13:34;;;;;;;1999.90;999.90;;;30.60;43.30;;;;;;6425323;22;20219;-72
2024/04/14 11:16:00;;;;;;;1999.90;999.90;;;30.70;43.10;;;;;;6423838;22;20274;-75
2024/04/14 11:18:27;;;;;;;1999.90;999.90;;;30.90;42.70;;;;;;6425230;22;20573;-72
2024/04/14 11:20:53;;;;;;;1999.90;999.90;;;30.80;43.10;;;;;;6381485;22;20250;-73
2024/04/14 11:23:21;;;;;;;1999.90;999.90;;;30.80;42.70;;;;;;6425398;22;20220;-72
2024/04/14 11:25:47;;;;;;;1999.90;999.90;;;30.70;42.10;;;;;;6381688;22;20228;-73
2024/04/14 11:28:12;;;;;;;1999.90;999.90;;;30.50;42.30;;;;;;6424424;22;20224;-73
2024/04/14 11:30:38;;;;;;;1999.90;999.90;;;30.60;42.70;;;;;;6425323;22;20269;-72
2024/04/14 11:33:05;;;;;;;1999.90;999.90;;;30.60;42.90;;;;;;6425449;22;20345;-72
2024/04/14 11:35:31;;;;;;;1999.90;999.90;;;30.70;43.00;;;;;;6381218;22;20258;-72
2024/04/14 11:37:57;;;;;;;1999.90;999.90;;;30.80;42.20;;;;;;6423846;22;20279;-73
2024/04/14 11:40:24;;;;;;;1999.90;999.90;;;31.10;42.70;;;;;;6425043;22;20322;-72
2024/04/14 11:42:50;;;;;;;1999.90;999.90;;;31.30;42.30;;;;;;6425474;22;20262;-72
2024/04/14 11:45:16;;;;;;;1999.90;999.90;;;31.30;42.00;;;;;;6425217;22;20224;-73
2024/04/14 11:47:42;;;;;;;1999.90;999.90;;;31.20;42.10;;;;;;6424058;22;20338;-72
2024/04/14 11:50:08;;;;;;;1999.90;999.90;;;31.10;41.80;;;;;;6425331;22;20227;-72
2024/04/14 11:52:34;;;;;;;1999.90;999.90;;;31.20;42.30;;;;;;6425114;22;20227;-72
2024/04/14 11:55:03;;;;;;;1999.90;999.90;;;31.40;42.40;;;;;;6424832;22;20604;-73
2024/04/14 11:57:29;;;;;;;1999.90;999.90;;;31.60;41.60;;;;;;6424092;22;20282;-71
2024/04/14 11:59:54;;;;;;;1999.90;999.90;;;31.70;40.90;;;;;;6424655;22;20219;-72
2024/04/14 12:02:21;;;;;;;1999.90;999.90;;;31.70;41.10;;;;;;6425055;22;20219;-72
2024/04/14 12:04:48;;;;;;;1999.90;999.90;;;31.70;41.40;;;;;;6425145;22;20227;-72
2024/04/14 12:07:14;;;;;;;1999.90;999.90;;;31.70;41.20;;;;;;6423210;22;20282;-71
2024/04/14 12:09:40;;;;;;;1999.90;999.90;;;31.50;42.20;;;;;;6424635;22;20219;-71
2024/04/14 12:12:06;;;;;;;1999.90;999.90;;;31.50;41.70;;;;;;6424920;22;20714;-72
2024/04/14 12:14:32;;;;;;;1999.90;999.90;;;31.40;41.70;;;;;;6424950;22;20220;-72
2024/04/14 12:16:59;;;;;;;1999.90;999.90;;;31.30;41.70;;;;;;6423305;22;20231;-71
2024/04/14 12:19:25;;;;;;;1999.90;999.90;;;31.30;41.50;;;;;;6424804;22;20215;-72
2024/04/14 12:21:51;;;;;;;1999.90;999.90;;;31.30;41.60;;;;;;6425148;22;20266;-71
2024/04/14 12:24:17;;;;;;;1999.90;999.90;;;31.30;41.70;;;;;;6424880;22;20219;-71
2024/04/14 12:26:44;;;;;;;1999.90;999.90;;;31.40;41.80;;;;;;6423430;22;20279;-72
2024/04/14 12:29:10;;;;;;;1999.90;999.90;;;31.30;41.90;;;;;;6424690;22;20328;-71
2024/04/14 12:31:35;;;;;;;1999.90;999.90;;;31.30;41.80;;;;;;6424645;22;20227;-71
2024/04/14 12:34:02;;;;;;;1999.90;999.90;;;31.20;40.70;;;;;;6424874;22;20231;-72
2024/04/14 12:36:27;;;;;;;1999.90;999.90;;;31.10;40.80;;;;;;6423303;22;20599;-71
2024/04/14 12:38:53;;;;;;;1999.90;999.90;;;30.90;40.90;;;;;;6424258;22;20275;-71
2024/04/14 12:41:20;;;;;;;1999.90;999.90;;;30.80;41.70;;;;;;6424907;22;20326;-71
2024/04/14 12:43:46;;;;;;;1999.90;999.90;;;30.80;41.90;;;;;;6424725;22;20286;-72
2024/04/14 12:46:12;;;;;;;1999.90;999.90;;;30.90;42.00;;;;;;6423152;22;20278;-71
2024/04/14 12:48:43;;;;;;;1999.90;999.90;;;31.00;41.80;;;;;;6425057;22;20219;-71
2024/04/14 12:51:09;;;;;;;1999.90;999.90;;;30.90;41.70;;;;;;6424404;22;20219;-71
2024/04/14 12:53:34;;;;;;;1999.90;999.90;;;30.50;41.10;;;;;;6424752;22;20755;-71